Time;durP1;ratioP1;P1;durP2;ratioP2;P2;SDS_P1;SDS_P2;PMS_P1;PMS_P2;Temp;Humidity;BMP_temperature;BMP_pressure;BME280_temperature;BME280_humidity;BME280_pressure;Samples;Min_cycle;Max_cycle;Signal;HPM_P1;HPM_P2
2023/02/21 02:15:14;;;;;;;6.75;2.92;;;;;;;4.40;98.07;98050.64;1692720;84;21438;-69
2023/02/21 02:17:58;;;;;;;7.55;2.55;;;;;;;4.42;97.15;98053.97;1692970;84;21054;-69
2023/02/21 02:21:06;;;;;;;9.13;2.52;;;;;;;4.43;96.24;98051.56;1692601;84;21020;-69
2023/02/21 02:24:09;;;;;;;4.83;1.92;;;;;;;4.42;95.39;98060.22;1678375;85;21464;-69
2023/02/21 02:27:13;;;;;;;3.72;1.98;;;;;;;4.40;94.06;98052.83;1692847;84;21038;-69
2023/02/21 02:29:58;;;;;;;5.40;2.30;;;;;;;4.42;92.60;98052.09;1678656;85;21122;-70
2023/02/21 02:33:05;;;;;;;8.95;2.87;;;;;;;4.43;92.22;98067.31;1671954;85;21059;-69
2023/02/21 02:35:36;;;;;;;6.35;2.08;;;;;;;4.43;91.21;98049.69;1692743;85;21496;-69
2023/02/21 02:38:19;;;;;;;6.50;1.90;;;;;;;4.44;90.91;98072.20;1692396;84;21493;-70
2023/02/21 02:41:15;;;;;;;7.12;1.85;;;;;;;4.42;90.37;98067.00;1692751;85;21030;-70
2023/02/21 02:43:54;;;;;;;6.45;1.87;;;;;;;4.41;89.66;98061.27;1692947;85;21030;-70
2023/02/21 02:46:27;;;;;;;7.33;1.80;;;;;;;4.43;88.88;98059.70;1692909;84;21045;-69
2023/02/21 02:49:13;;;;;;;4.97;1.50;;;;;;;4.45;88.48;98057.61;1678339;85;21495;-70
2023/02/21 02:51:42;;;;;;;4.12;1.50;;;;;;;4.46;87.99;98055.20;1692777;85;21083;-70
2023/02/21 02:54:13;;;;;;;6.22;1.42;;;;;;;4.46;87.84;98060.10;1692389;85;21022;-69
2023/02/21 02:56:44;;;;;;;8.73;2.08;;;;;;;4.46;87.80;98060.62;1692672;85;21053;-68
2023/02/21 02:59:25;;;;;;;5.00;1.80;;;;;;;4.45;87.79;98065.73;1692635;84;21037;-70
2023/02/21 03:02:02;;;;;;;4.55;1.17;;;;;;;4.45;87.80;98068.45;1692937;84;21042;-69
2023/02/21 03:05:23;;;;;;;3.58;1.30;;;;;;;4.45;87.80;98074.70;1692694;85;21030;-69
2023/02/21 03:08:03;;;;;;;5.47;1.27;;;;;;;4.43;87.88;98062.41;1692627;85;21007;-69
2023/02/21 03:10:42;;;;;;;6.62;1.67;;;;;;;4.42;87.85;98078.37;1678537;85;21585;-69
2023/02/21 03:13:16;;;;;;;8.85;2.42;;;;;;;4.43;87.83;98085.45;1670691;85;21468;-70
2023/02/21 03:15:53;;;;;;;4.42;1.60;;;;;;;4.42;87.69;98082.44;1667936;85;21447;-71
2023/02/21 03:18:37;;;;;;;6.75;1.72;;;;;;;4.41;87.57;98091.62;1664723;86;21483;-67
2023/02/21 03:21:10;;;;;;;6.08;1.40;;;;;;;4.41;87.60;98076.19;1663500;86;21039;-69
2023/02/21 03:23:42;;;;;;;3.27;1.40;;;;;;;4.40;87.28;98089.95;1664618;86;21072;-70
2023/02/21 03:26:11;;;;;;;5.60;1.42;;;;;;;4.41;87.20;98099.22;1664320;86;21486;-69
2023/02/21 03:28:42;;;;;;;11.65;2.12;;;;;;;4.42;87.15;98096.82;1712823;84;21052;-70
2023/02/21 03:31:11;;;;;;;8.95;3.25;;;;;;;4.41;86.96;98107.36;1704997;84;20987;-69
2023/02/21 03:33:41;;;;;;;8.35;2.05;;;;;;;4.41;87.03;98093.80;1664380;86;21475;-70
2023/02/21 03:36:10;;;;;;;7.55;2.52;;;;;;;4.43;87.03;98103.08;1664607;85;21482;-69
2023/02/21 03:38:39;;;;;;;6.50;1.95;;;;;;;4.44;87.11;98096.61;1713018;84;21009;-69
2023/02/21 03:41:08;;;;;;;7.47;1.92;;;;;;;4.43;86.85;98105.27;1705227;83;21053;-69
2023/02/21 03:43:38;;;;;;;5.60;1.85;;;;;;;4.45;86.60;98109.12;1664393;85;21119;-69
2023/02/21 03:46:07;;;;;;;5.83;2.08;;;;;;;4.46;86.04;98096.70;1664472;86;21415;-70
2023/02/21 03:48:37;;;;;;;7.33;2.20;;;;;;;4.50;85.78;98104.41;1664393;85;21498;-69
2023/02/21 03:51:10;;;;;;;8.70;2.58;;;;;;;4.50;85.81;98103.05;1663311;86;21083;-69
2023/02/21 03:53:39;;;;;;;8.80;2.40;;;;;;;4.50;85.75;98103.05;1712887;84;20981;-69
2023/02/21 03:56:09;;;;;;;4.80;1.57;;;;;;;4.48;85.70;98104.62;1705301;83;21456;-69
2023/02/21 03:58:44;;;;;;;6.92;1.65;;;;;;;4.46;85.82;98102.13;1656403;86;21067;-69
2023/02/21 04:01:14;;;;;;;6.70;1.70;;;;;;;4.45;85.86;98107.23;1688480;84;21080;-69
2023/02/21 04:03:45;;;;;;;7.87;1.75;;;;;;;4.44;85.84;98108.80;1684054;84;21009;-70
2023/02/21 04:06:15;;;;;;;4.17;1.30;;;;;;;4.43;85.88;98117.98;1664543;85;21094;-71
2023/02/21 04:08:46;;;;;;;5.17;1.35;;;;;;;4.42;85.88;98117.16;1688361;84;21009;-67
2023/02/21 04:11:21;;;;;;;5.58;1.30;;;;;;;4.42;85.63;98112.26;1705124;84;20959;-68
2023/02/21 04:13:51;;;;;;;4.53;1.60;;;;;;;4.46;85.48;98110.78;1664601;86;21471;-69
2023/02/21 04:16:19;;;;;;;4.83;1.60;;;;;;;4.47;85.04;98100.24;1706079;84;21054;-69
2023/02/21 04:18:50;;;;;;;4.95;1.40;;;;;;;4.48;84.84;98088.87;1705139;84;21053;-69
2023/02/21 04:21:20;;;;;;;5.12;1.60;;;;;;;4.48;84.76;98088.35;1704937;84;20962;-70
2023/02/21 04:23:51;;;;;;;4.75;1.57;;;;;;;4.48;84.69;98086.16;1705015;84;20994;-67
2023/02/21 04:26:21;;;;;;;2.60;1.20;;;;;;;4.46;84.68;98098.58;1705156;83;21009;-69
2023/02/21 04:28:51;;;;;;;5.17;1.50;;;;;;;4.44;84.68;98093.90;1704990;84;21049;-68
2023/02/21 04:31:21;;;;;;;2.85;1.20;;;;;;;4.45;84.68;98095.56;1705026;84;21944;-70
2023/02/21 04:33:52;;;;;;;5.65;1.45;;;;;;;4.43;84.78;98097.66;1705075;84;20998;-70
2023/02/21 04:36:24;;;;;;;5.83;2.20;;;;;;;4.42;84.94;98091.92;1703880;84;21049;-69
2023/02/21 04:38:53;;;;;;;3.83;1.50;;;;;;;4.43;85.12;98101.72;1705042;84;21450;-69
2023/02/21 04:41:23;;;;;;;5.67;1.75;;;;;;;4.40;85.26;98088.08;1705371;84;21002;-69
2023/02/21 04:43:52;;;;;;;10.60;1.90;;;;;;;4.39;85.44;98089.64;1704986;84;21433;-70
2023/02/21 04:46:21;;;;;;;7.30;1.57;;;;;;;4.37;85.64;98091.73;1705026;84;21520;-69
2023/02/21 04:48:50;;;;;;;4.85;1.60;;;;;;;4.36;85.85;98090.07;1705291;84;21030;-70
2023/02/21 04:51:21;;;;;;;2.98;1.32;;;;;;;4.34;86.03;98097.59;1705204;84;21041;-69
2023/02/21 04:53:52;;;;;;;9.05;1.70;;;;;;;4.34;86.20;98090.81;1683655;84;21038;-69
2023/02/21 04:56:24;;;;;;;7.15;1.80;;;;;;;4.32;86.30;98096.45;1704997;84;21025;-69
2023/02/21 04:58:54;;;;;;;6.33;1.70;;;;;;;4.33;86.36;98094.56;1705058;83;21065;-70
2023/02/21 05:01:27;;;;;;;4.60;1.50;;;;;;;4.33;86.21;98097.28;1705218;84;21057;-69
2023/02/21 05:03:58;;;;;;;9.35;1.82;;;;;;;4.33;85.97;98106.24;1684300;84;21013;-68
2023/02/21 05:06:27;;;;;;;4.85;1.30;;;;;;;4.34;85.87;98105.72;1705271;84;21370;-70
2023/02/21 05:08:57;;;;;;;5.55;1.40;;;;;;;4.33;85.56;98117.08;1705169;83;21018;-70
2023/02/21 05:11:26;;;;;;;10.13;2.25;;;;;;;4.35;85.33;98119.06;1705071;84;21005;-71
2023/02/21 05:13:55;;;;;;;7.20;1.80;;;;;;;4.35;85.21;98116.34;1705384;83;21480;-70
2023/02/21 05:16:24;;;;;;;4.15;1.20;;;;;;;4.35;85.04;98123.64;1705179;82;21065;-69
2023/02/21 05:18:53;;;;;;;5.33;1.37;;;;;;;4.35;84.75;98119.58;1705222;83;21477;-70
2023/02/21 05:21:21;;;;;;;4.75;1.57;;;;;;;4.34;84.66;98113.33;1705163;84;20974;-68
2023/02/21 05:23:56;;;;;;;4.22;1.27;;;;;;;4.34;84.53;98111.14;1705191;84;21426;-68
2023/02/21 05:26:28;;;;;;;3.17;1.07;;;;;;;4.34;84.48;98121.98;1705153;84;21115;-70
2023/02/21 05:28:57;;;;;;;3.70;1.35;;;;;;;4.35;84.28;98115.52;1705045;84;21046;-70
2023/02/21 05:31:27;;;;;;;5.03;1.47;;;;;;;4.35;84.27;98121.77;1705251;84;21034;-69
2023/02/21 05:33:57;;;;;;;5.25;1.40;;;;;;;4.36;84.21;98111.23;1704935;84;21409;-69
2023/02/21 05:36:26;;;;;;;4.58;1.42;;;;;;;4.38;84.22;98121.34;1705101;84;21006;-71
2023/02/21 05:38:55;;;;;;;5.85;1.57;;;;;;;4.39;84.03;98109.97;1705025;84;20978;-70
2023/02/21 05:41:24;;;;;;;6.25;2.12;;;;;;;4.39;83.90;98116.23;1704993;84;21476;-70
2023/02/21 05:43:53;;;;;;;7.45;1.85;;;;;;;4.41;83.89;98119.55;1705237;84;21029;-69
2023/02/21 05:46:33;;;;;;;8.95;1.60;;;;;;;4.42;83.98;98117.67;1704968;83;21439;-69
2023/02/21 05:49:03;;;;;;;4.90;1.40;;;;;;;4.41;84.00;98119.55;1704969;84;20974;-69
2023/02/21 05:51:41;;;;;;;7.62;2.00;;;;;;;4.42;83.95;98117.16;1705486;83;21021;-69
2023/02/21 05:54:19;;;;;;;9.90;1.95;;;;;;;4.45;83.93;98121.31;1705191;84;21527;-70
2023/02/21 05:56:49;;;;;;;;;;;;;;;4.46;83.79;98116.20;1707513;84;21045;-71
2023/02/21 05:59:18;;;;;;;5.85;1.52;;;;;;;4.46;83.56;98117.56;1705208;84;20451;-69
2023/02/21 06:01:49;;;;;;;7.40;1.90;;;;;;;4.46;83.52;98122.45;1624453;88;21051;-70
2023/02/21 06:04:18;;;;;;;4.37;1.40;;;;;;;4.48;83.60;98124.13;1624085;88;21489;-68
2023/02/21 06:06:47;;;;;;;7.28;2.42;;;;;;;4.50;83.66;98119.31;1624299;88;21174;-72
2023/02/21 06:09:19;;;;;;;6.53;2.22;;;;;;;4.52;83.62;98120.77;1624027;88;21502;-70
2023/02/21 06:11:47;;;;;;;8.15;1.70;;;;;;;4.53;83.63;98126.50;1624165;88;21091;-69
2023/02/21 06:14:19;;;;;;;7.03;1.92;;;;;;;4.56;83.69;98127.45;1624249;88;21522;-71
2023/02/21 06:16:48;;;;;;;4.30;1.80;;;;;;;4.57;83.74;98129.12;1622365;88;21082;-69
2023/02/21 06:19:17;;;;;;;6.00;1.70;;;;;;;4.59;83.82;98133.80;1639248;84;21002;-70
2023/02/21 06:21:46;;;;;;;5.87;1.92;;;;;;;4.59;83.81;98128.38;1702418;84;21065;-70
2023/02/21 06:24:15;;;;;;;4.42;1.60;;;;;;;4.60;83.86;98137.34;1701948;84;21061;-70
2023/02/21 06:26:45;;;;;;;5.12;1.60;;;;;;;4.61;83.76;98137.66;1702221;84;21472;-70
2023/02/21 06:29:14;;;;;;;8.43;1.90;;;;;;;4.62;83.62;98151.00;1702520;84;21046;-68
2023/02/21 06:31:44;;;;;;;6.55;2.60;;;;;;;4.63;83.57;98152.66;1702454;84;21390;-69
2023/02/21 06:34:13;;;;;;;5.17;1.77;;;;;;;4.65;83.68;98141.08;1702388;84;21009;-69
2023/02/21 06:36:43;;;;;;;7.03;2.22;;;;;;;4.69;83.70;98160.46;1702689;84;21089;-69
2023/02/21 06:39:12;;;;;;;5.20;1.70;;;;;;;4.73;83.59;98161.70;1702466;84;20967;-70
2023/02/21 06:41:40;;;;;;;6.92;1.75;;;;;;;4.77;83.43;98152.91;1702549;84;21010;-68
2023/02/21 06:44:09;;;;;;;7.10;2.15;;;;;;;4.81;83.01;98156.03;1702332;84;21002;-71
2023/02/21 06:46:38;;;;;;;5.10;1.47;;;;;;;4.82;82.91;98161.77;1702375;84;21057;-73
2023/02/21 06:49:07;;;;;;;5.90;1.65;;;;;;;4.87;83.00;98163.83;1702387;84;21049;-68
2023/02/21 06:51:37;;;;;;;7.20;1.75;;;;;;;4.92;82.60;98173.50;1702344;84;21422;-70
2023/02/21 06:54:09;;;;;;;6.42;1.85;;;;;;;4.96;82.50;98180.16;1702432;84;21409;-71
2023/02/21 06:56:41;;;;;;;9.20;1.67;;;;;;;5.01;82.13;98174.39;1702225;84;21439;-70
2023/02/21 06:59:10;;;;;;;4.90;1.20;;;;;;;5.05;81.83;98173.44;1702388;84;21669;-70
2023/02/21 07:01:39;;;;;;;6.92;2.00;;;;;;;5.08;81.60;98164.86;1702353;84;20994;-68
2023/02/21 07:04:08;;;;;;;6.15;1.42;;;;;;;5.10;81.51;98161.41;1702356;84;21031;-70
2023/02/21 07:06:38;;;;;;;7.30;1.85;;;;;;;5.14;81.40;98180.28;1702481;84;21433;-70
2023/02/21 07:09:07;;;;;;;7.10;1.47;;;;;;;5.17;80.84;98154.05;1702236;84;21077;-69
2023/02/21 07:11:37;;;;;;;6.60;1.57;;;;;;;5.19;80.77;98173.67;1702091;84;21413;-69
2023/02/21 07:14:05;;;;;;;5.72;1.50;;;;;;;5.24;80.93;98157.59;1702448;84;21546;-69
2023/02/21 07:16:36;;;;;;;3.80;1.40;;;;;;;5.28;80.81;98153.91;1703649;83;20990;-70
2023/02/21 07:19:04;;;;;;;7.53;2.08;;;;;;;5.31;80.39;98163.81;1705008;84;21037;-72
2023/02/21 07:21:34;;;;;;;5.37;1.60;;;;;;;5.31;79.83;98158.38;1705011;84;21002;-69
2023/02/21 07:24:03;;;;;;;6.95;1.72;;;;;;;5.30;79.91;98156.72;1705045;84;21476;-71
2023/02/21 07:26:31;;;;;;;6.67;1.40;;;;;;;5.32;80.03;98149.19;1704978;84;21434;-69
2023/02/21 07:29:01;;;;;;;5.65;1.77;;;;;;;5.33;80.28;98153.56;1705024;83;21028;-70
2023/02/21 07:31:30;;;;;;;6.42;1.98;;;;;;;5.34;80.03;98153.03;1704957;84;21037;-71
2023/02/21 07:34:00;;;;;;;6.15;1.85;;;;;;;5.35;79.99;98144.67;1704821;84;21049;-70
2023/02/21 07:36:30;;;;;;;8.00;2.02;;;;;;;5.38;80.32;98156.45;1704935;84;20986;-71
2023/02/21 07:39:00;;;;;;;6.55;2.12;;;;;;;5.41;80.33;98139.72;1705047;84;21037;-70
2023/02/21 07:41:30;;;;;;;8.83;1.70;;;;;;;5.45;80.12;98139.28;1705117;84;21057;-71
2023/02/21 07:43:59;;;;;;;6.75;1.60;;;;;;;5.48;79.99;98134.77;1705149;84;21441;-69
2023/02/21 07:46:28;;;;;;;7.03;1.80;;;;;;;5.53;79.70;98143.08;1705203;84;21033;-69
2023/02/21 07:48:57;;;;;;;8.30;2.08;;;;;;;5.55;78.75;98131.47;1705128;84;21434;-71
2023/02/21 12:42:05;;;;;;;4.70;1.60;;;;;;;5.84;87.10;98201.45;1829621;77;25267;-78
2023/02/21 12:44:48;;;;;;;5.00;1.42;;;;;;;5.84;86.59;98222.35;1788730;80;21087;-78
2023/02/21 12:47:33;;;;;;;5.40;1.47;;;;;;;5.89;85.95;98210.33;1794506;80;21242;-78
2023/02/21 12:50:27;;;;;;;5.17;2.00;;;;;;;5.96;85.28;98235.06;1788299;80;21208;-78
2023/02/21 12:53:17;;;;;;;6.15;1.72;;;;;;;6.05;84.69;98228.83;1750206;82;21549;-78
2023/02/21 12:56:00;;;;;;;5.80;1.75;;;;;;;6.14;84.80;98238.89;1739906;82;21191;-78
2023/02/21 12:58:38;;;;;;;4.08;1.40;;;;;;;6.22;84.30;98229.93;1723812;83;21141;-77
2023/02/21 13:01:29;;;;;;;4.55;1.77;;;;;;;6.27;81.75;98234.70;1689954;82;21159;-76
2023/02/21 13:04:26;;;;;;;7.20;2.33;;;;;;;6.31;81.24;98244.08;1723979;83;21153;-79
2023/02/21 13:07:10;;;;;;;;;;;;;;;6.34;80.80;98247.70;1742127;82;21190;-77
2023/02/21 13:10:08;;;;;;;6.12;1.67;;;;;;;6.33;79.91;98233.28;1739929;82;20146;-76
2023/02/21 13:12:44;;;;;;;;;;;;;;;6.33;79.71;98252.84;1721337;82;21106;-78
2023/02/21 13:15:19;;;;;;;3.50;1.30;;;;;;;6.28;78.96;98252.16;1727392;82;20145;-74
2023/02/21 13:17:53;;;;;;;5.35;1.42;;;;;;;6.25;78.94;98246.33;1722851;82;21125;-77
2023/02/21 13:20:22;;;;;;;4.28;1.62;;;;;;;6.25;79.66;98246.33;1716052;83;21665;-77
2023/02/21 13:27:03;;;;;;;4.83;2.08;;;;;;;6.19;79.85;98252.12;1738558;82;21158;-77
2023/02/21 13:29:34;;;;;;;6.42;2.27;;;;;;;6.18;79.98;98256.43;1732663;81;21600;-77
2023/02/21 13:32:12;;;;;;;6.17;2.17;;;;;;;6.19;79.49;98259.45;1689185;83;21635;-77
2023/02/21 13:34:45;;;;;;;4.67;1.45;;;;;;;6.19;79.34;98263.00;1716159;83;21212;-77
2023/02/21 13:37:18;;;;;;;3.72;1.50;;;;;;;6.19;77.62;98261.64;1692791;82;21751;-76
2023/02/21 13:39:51;;;;;;;3.58;1.25;;;;;;;6.18;76.66;98265.94;1741855;82;21124;-77
2023/02/21 13:42:24;;;;;;;3.33;1.87;;;;;;;6.17;76.12;98268.36;1712978;82;21146;-76
2023/02/21 13:45:08;;;;;;;4.83;1.65;;;;;;;6.17;75.69;98275.98;1708492;83;21174;-68
2023/02/21 13:48:03;;;;;;;3.80;1.20;;;;;;;6.20;76.15;98269.27;1723883;83;21205;-73
2023/02/21 13:50:42;;;;;;;3.58;0.98;;;;;;;6.24;75.20;98276.77;1731097;82;21162;-75
2023/02/21 13:53:32;;;;;;;2.72;1.50;;;;;;;6.27;73.29;98268.69;1729332;83;21162;-76
2023/02/21 13:56:11;;;;;;;3.60;1.15;;;;;;;6.34;72.59;98272.19;1699372;84;21133;-76
2023/02/21 13:58:44;;;;;;;4.55;1.27;;;;;;;6.39;72.38;98284.59;1708309;84;21130;-76
2023/02/21 14:01:33;;;;;;;3.20;1.20;;;;;;;6.45;71.56;98293.21;1708203;83;21149;-79
2023/02/21 14:04:02;;;;;;;3.27;1.27;;;;;;;6.48;70.92;98299.56;1708098;83;21133;-78
2023/02/21 14:06:36;;;;;;;6.83;1.60;;;;;;;6.48;69.79;98295.48;1658240;84;21165;-78
2023/02/21 14:09:16;;;;;;;7.35;1.50;;;;;;;6.49;69.83;98309.92;1680285;84;21153;-76
2023/02/21 14:11:51;;;;;;;4.90;1.17;;;;;;;6.48;69.48;98304.17;1708173;84;21131;-75
2023/02/21 14:14:27;;;;;;;3.67;1.45;;;;;;;6.46;69.96;98315.28;1751604;81;21127;-78
2023/02/21 14:17:11;;;;;;;;;;;;;;;6.46;70.54;98329.41;1736044;80;21531;-77
2023/02/21 14:19:48;;;;;;;4.25;1.60;;;;;;;6.48;71.91;98338.17;1751710;82;20276;-77
2023/02/21 14:22:29;;;;;;;3.33;1.40;;;;;;;6.47;73.40;98335.98;1779368;80;21142;-75
2023/02/21 14:25:22;;;;;;;3.83;1.50;;;;;;;6.40;74.36;98339.28;1782214;79;21142;-77
2023/02/21 14:27:53;;;;;;;2.67;1.15;;;;;;;6.31;74.47;98346.88;1782371;80;21598;-77
2023/02/21 14:30:30;;;;;;;4.20;1.10;;;;;;;6.26;74.97;98342.63;1782694;79;21562;-72
2023/02/21 14:33:25;;;;;;;2.52;0.90;;;;;;;6.23;74.57;98350.40;1782585;80;21111;-78
2023/02/21 14:36:05;;;;;;;1.65;1.12;;;;;;;6.17;74.20;98363.52;1753307;80;21084;-78
2023/02/21 14:38:40;;;;;;;1.80;0.85;;;;;;;6.10;74.28;98360.01;1762914;80;21143;-76
2023/02/21 14:41:43;;;;;;;2.33;1.10;;;;;;;6.03;74.66;98366.31;1777272;80;21115;-76
2023/02/21 14:44:32;;;;;;;3.83;1.35;;;;;;;5.99;75.02;98361.54;1774051;80;21170;-77
2023/02/21 14:47:45;;;;;;;3.75;1.55;;;;;;;5.93;75.42;98361.89;1677918;85;21154;-77
2023/02/21 14:50:25;;;;;;;4.55;1.32;;;;;;;5.91;75.86;98369.95;1743930;81;21564;-76
2023/02/21 14:53:38;;;;;;;4.47;1.67;;;;;;;5.87;76.13;98365.44;1743757;82;21124;-75
2023/02/21 14:56:31;;;;;;;3.55;1.10;;;;;;;5.87;76.29;98372.76;1743751;81;22230;-75
2023/02/21 14:59:16;;;;;;;2.55;1.10;;;;;;;5.84;76.29;98378.07;1743692;82;21612;-76
2023/02/21 15:02:18;;;;;;;2.15;1.12;;;;;;;5.86;76.20;98388.23;1742199;81;21390;-76
2023/02/21 15:05:18;;;;;;;1.95;0.78;;;;;;;5.85;76.01;98393.85;1743295;82;21123;-76
2023/02/21 15:07:52;;;;;;;2.95;1.50;;;;;;;5.81;75.29;98392.09;1742893;82;21108;-77
2023/02/21 15:10:30;;;;;;;1.72;1.00;;;;;;;5.76;75.37;98397.34;1743194;82;22116;-76
2023/02/21 15:13:03;;;;;;;3.40;1.72;;;;;;;5.69;75.64;98406.88;1743229;82;21214;-76
2023/02/21 15:15:39;;;;;;;1.10;0.70;;;;;;;5.64;75.90;98405.86;1743428;82;21182;-76
2023/02/21 15:18:11;;;;;;;1.72;0.72;;;;;;;5.59;76.35;98409.74;1743212;81;21230;-76
2023/02/21 15:20:43;;;;;;;1.40;0.80;;;;;;;5.51;76.35;98404.55;1750397;81;21079;-76
2023/02/21 15:23:18;;;;;;;4.80;1.60;;;;;;;5.48;76.81;98414.48;1763379;81;21174;-76
2023/02/21 15:25:56;;;;;;;3.55;1.47;;;;;;;5.45;77.09;98424.41;1774039;81;21140;-75
2023/02/21 15:28:30;;;;;;;4.28;1.50;;;;;;;5.41;77.61;98432.98;1774390;79;21171;-75
2023/02/21 15:31:04;;;;;;;3.25;1.35;;;;;;;5.40;77.95;98441.34;1774079;79;21138;-75
2023/02/21 15:33:36;;;;;;;2.50;1.15;;;;;;;5.39;78.16;98442.39;1774276;79;21575;-76
2023/02/21 15:36:17;;;;;;;3.92;1.70;;;;;;;5.37;78.31;98442.61;1763498;79;21167;-75
2023/02/21 15:39:05;;;;;;;4.95;1.85;;;;;;;5.34;78.75;98466.63;1774337;81;21096;-76
2023/02/21 15:41:47;;;;;;;6.33;2.47;;;;;;;5.33;78.80;98459.53;1774213;80;21158;-75
2023/02/21 15:44:32;;;;;;;4.87;2.15;;;;;;;5.31;79.03;98468.41;1774171;81;21548;-73
2023/02/21 15:47:16;;;;;;;7.22;3.30;;;;;;;5.30;79.11;98473.01;1743780;81;21167;-76
2023/02/21 15:50:12;;;;;;;7.30;2.72;;;;;;;5.28;79.29;98470.20;1743659;82;21515;-75
2023/02/21 15:52:47;;;;;;;5.97;2.40;;;;;;;5.27;79.56;98486.17;1743241;82;21143;-74
2023/02/21 15:55:25;;;;;;;4.65;1.98;;;;;;;5.26;79.88;98480.43;1743703;82;21150;-76
2023/02/21 15:58:12;;;;;;;7.65;3.05;;;;;;;5.25;80.16;98488.27;1743587;82;21147;-76
2023/02/21 16:00:45;;;;;;;7.50;3.08;;;;;;;5.24;80.42;98487.95;1744094;81;21194;-77
2023/02/21 16:03:39;;;;;;;6.25;2.55;;;;;;;5.23;80.56;98497.98;1743451;82;21384;-75
2023/02/21 16:06:28;;;;;;;6.53;2.70;;;;;;;5.25;80.91;98508.11;1743603;82;21179;-76
2023/02/21 16:09:07;;;;;;;2.50;1.50;;;;;;;5.27;81.15;98513.32;1757647;81;21115;-75
2023/02/21 16:11:50;;;;;;;6.80;2.42;;;;;;;5.29;81.31;98514.78;1743708;81;21604;-77
2023/02/21 16:14:42;;;;;;;5.20;2.37;;;;;;;5.32;81.59;98534.72;1708073;84;21119;-74
2023/02/21 16:17:39;;;;;;;4.92;0.93;;;;;;;5.35;82.15;98587.78;1743436;82;21178;-67
2023/02/21 16:20:17;;;;;;;4.22;0.80;;;;;;;5.18;81.46;98586.48;1743638;81;21424;-69
2023/02/21 16:22:52;;;;;;;2.25;0.85;;;;;;;4.75;81.70;98603.11;1763637;81;21111;-69
2023/02/21 16:25:26;;;;;;;;;;;;;;;4.42;82.84;98598.38;1776404;80;21137;-69
2023/02/21 16:28:00;;;;;;;4.78;1.10;;;;;;;4.23;84.04;98616.75;1774087;81;20158;-70
2023/02/21 16:30:30;;;;;;;3.15;1.40;;;;;;;4.06;85.52;98627.09;1774166;81;21158;-71
2023/02/21 16:33:03;;;;;;;6.70;1.90;;;;;;;3.91;86.83;98611.98;1774061;81;21107;-73
2023/02/21 16:35:33;;;;;;;4.45;1.60;;;;;;;3.79;87.32;98643.66;1774207;81;21115;-74
2023/02/21 16:38:05;;;;;;;5.00;2.22;;;;;;;3.74;87.93;98628.52;1774164;81;21606;-75
2023/02/21 16:40:35;;;;;;;6.33;2.65;;;;;;;3.74;88.35;98639.87;1775440;80;21624;-75
2023/02/21 16:43:05;;;;;;;4.80;1.72;;;;;;;3.74;88.52;98647.47;1787998;79;21558;-75
2023/02/21 16:45:41;;;;;;;5.40;2.20;;;;;;;3.78;88.68;98658.23;1788085;80;21099;-77
2023/02/21 16:48:23;;;;;;;7.45;2.40;;;;;;;3.80;88.75;98653.97;1748584;80;21088;-77
2023/02/21 16:50:52;;;;;;;6.80;1.92;;;;;;;3.82;88.75;98670.34;1771335;80;21103;-72
2023/02/21 16:53:22;;;;;;;6.40;2.00;;;;;;;3.82;88.69;98658.16;1788119;80;21174;-76
2023/02/21 16:55:52;;;;;;;8.45;1.40;;;;;;;3.83;88.67;98656.28;1788077;80;21130;-76
2023/02/21 16:58:32;;;;;;;3.15;1.30;;;;;;;3.85;88.95;98660.16;1788109;80;21163;-76
2023/02/21 17:01:15;;;;;;;5.15;1.40;;;;;;;3.89;88.68;98669.05;1787812;80;21166;-75
2023/02/21 17:03:44;;;;;;;4.87;1.47;;;;;;;3.89;88.27;98674.46;1767358;81;21585;-76
2023/02/21 17:06:18;;;;;;;5.70;2.00;;;;;;;3.91;87.93;98698.16;1772603;81;21123;-76
2023/02/21 17:08:47;;;;;;;6.00;1.90;;;;;;;3.88;87.50;98692.27;1772816;81;21102;-71
2023/02/21 17:11:18;;;;;;;4.72;1.80;;;;;;;3.86;87.23;98696.52;1772323;81;21154;-72
2023/02/21 17:13:48;;;;;;;5.58;2.00;;;;;;;3.85;87.07;98705.69;1772767;81;21115;-72
2023/02/21 17:16:17;;;;;;;6.22;2.15;;;;;;;3.86;86.75;98699.23;1772718;81;21967;-71
2023/02/21 17:18:46;;;;;;;6.95;2.50;;;;;;;3.85;86.18;98702.14;1772938;81;21598;-72
2023/02/21 17:21:15;;;;;;;5.50;1.80;;;;;;;3.81;86.02;98700.34;1772845;81;21190;-74
2023/02/21 17:23:47;;;;;;;2.50;1.32;;;;;;;3.79;85.88;98695.64;1712146;84;21178;-73
2023/02/21 17:26:16;;;;;;;4.35;1.70;;;;;;;3.77;85.42;98699.89;1711897;84;21255;-71
2023/02/21 17:28:48;;;;;;;6.35;1.95;;;;;;;3.74;85.09;98711.13;1672521;80;21227;-65
2023/02/21 17:31:17;;;;;;;6.65;2.37;;;;;;;3.72;85.02;98709.64;1625711;88;21143;-64
2023/02/21 17:33:48;;;;;;;8.88;2.62;;;;;;;3.69;84.86;98713.58;1626173;88;21211;-66
2023/02/21 17:36:18;;;;;;;7.42;2.37;;;;;;;3.67;84.53;98714.81;1627007;88;21257;-65
2023/02/21 17:38:46;;;;;;;7.67;2.47;;;;;;;3.66;84.38;98723.96;1626030;87;21198;-65
2023/02/21 17:41:18;;;;;;;8.70;2.87;;;;;;;3.65;84.19;98735.83;1625905;88;21195;-67
2023/02/21 17:43:49;;;;;;;9.00;2.85;;;;;;;3.65;84.10;98740.73;1605796;88;21176;-66
2023/02/21 17:46:18;;;;;;;6.80;2.87;;;;;;;3.64;83.82;98744.47;1626350;88;21136;-65
2023/02/21 17:48:47;;;;;;;11.38;3.83;;;;;;;3.63;83.63;98748.20;1660461;85;21147;-66
2023/02/21 17:51:18;;;;;;;9.10;3.15;;;;;;;3.62;83.08;98745.69;1678248;85;21178;-65
2023/02/21 17:53:48;;;;;;;4.53;2.30;;;;;;;3.60;82.66;98751.82;1678114;85;21146;-65
2023/02/21 17:56:19;;;;;;;7.37;2.87;;;;;;;3.59;82.40;98743.37;1678068;85;21270;-64
2023/02/21 17:58:51;;;;;;;5.62;1.90;;;;;;;3.59;82.32;98751.50;1678187;85;21119;-65
2023/02/21 18:01:30;;;;;;;4.40;1.70;;;;;;;3.57;82.05;98766.58;1678049;85;21211;-66
2023/02/21 18:04:00;;;;;;;5.08;1.70;;;;;;;3.56;81.80;98781.16;1678218;85;21225;-65
2023/02/21 18:06:29;;;;;;;3.90;1.60;;;;;;;3.56;81.49;98778.96;1678042;85;21198;-65
2023/02/21 18:08:58;;;;;;;5.33;1.77;;;;;;;3.53;80.65;98792.88;1678432;85;21163;-65
2023/02/21 18:11:38;;;;;;;6.15;1.98;;;;;;;3.53;80.54;98801.84;1677796;85;21178;-66
2023/02/21 18:14:25;;;;;;;5.15;1.70;;;;;;;3.52;80.26;98803.39;1678410;85;21107;-67
2023/02/21 18:16:55;;;;;;;4.25;1.95;;;;;;;3.52;79.99;98813.70;1652741;85;21134;-65
2023/02/21 18:19:25;;;;;;;4.20;1.60;;;;;;;3.53;79.98;98809.12;1678266;85;21151;-64
2023/02/21 18:21:55;;;;;;;2.92;1.42;;;;;;;3.54;79.73;98822.98;1678061;84;21649;-64
2023/02/21 18:24:26;;;;;;;4.12;1.40;;;;;;;3.52;79.46;98827.24;1677956;85;21576;-63
2023/02/21 18:26:55;;;;;;;3.62;1.47;;;;;;;3.50;79.20;98821.18;1678028;85;21170;-65
2023/02/21 18:29:24;;;;;;;5.10;1.70;;;;;;;3.48;79.00;98812.41;1682199;83;21246;-65
2023/02/21 18:31:53;;;;;;;4.97;1.75;;;;;;;3.45;78.80;98821.75;1678246;85;21127;-63
2023/02/21 18:34:22;;;;;;;5.05;1.95;;;;;;;3.44;78.94;98839.03;1676549;85;21138;-65
2023/02/21 18:36:52;;;;;;;3.92;1.98;;;;;;;3.44;78.81;98829.55;1676726;85;21572;-64
2023/02/21 18:39:22;;;;;;;5.33;2.02;;;;;;;3.46;79.00;98832.91;1676645;85;21127;-65
2023/02/21 18:41:52;;;;;;;5.53;2.08;;;;;;;3.47;79.01;98835.94;1676407;85;21574;-63
2023/02/21 18:44:22;;;;;;;5.22;2.00;;;;;;;3.48;78.93;98847.09;1676479;85;21126;-63
2023/02/21 18:46:53;;;;;;;4.25;2.05;;;;;;;3.50;79.05;98843.68;1676448;84;21550;-64
2023/02/21 18:49:22;;;;;;;6.00;1.80;;;;;;;3.50;79.13;98853.16;1676432;85;21195;-64
2023/02/21 18:51:53;;;;;;;4.78;2.02;;;;;;;3.49;79.11;98847.41;1676395;85;21131;-64
2023/02/21 18:54:22;;;;;;;5.50;1.92;;;;;;;3.46;79.29;98859.14;1676446;85;21570;-64
2023/02/21 18:56:51;;;;;;;5.12;1.60;;;;;;;3.44;79.31;98863.91;1676647;85;21163;-64
2023/02/21 18:59:22;;;;;;;4.20;1.60;;;;;;;3.42;79.46;98874.92;1676677;85;21546;-64
2023/02/21 19:01:53;;;;;;;4.87;1.67;;;;;;;3.43;79.58;98877.95;1676611;85;21131;-65
2023/02/21 19:04:22;;;;;;;3.98;1.47;;;;;;;3.42;79.61;98874.92;1676663;85;21207;-64
2023/02/21 19:06:51;;;;;;;4.30;1.30;;;;;;;3.40;79.34;98879.69;1676630;84;21576;-64
2023/02/21 19:09:19;;;;;;;4.22;1.42;;;;;;;3.35;79.48;98882.13;1676746;85;21138;-63
2023/02/21 19:11:49;;;;;;;3.12;1.30;;;;;;;3.35;79.65;98890.25;1676600;85;21135;-65
2023/02/21 19:14:19;;;;;;;2.80;1.20;;;;;;;3.35;79.62;98897.53;1676453;85;21378;-64
2023/02/21 19:16:48;;;;;;;3.83;1.55;;;;;;;3.34;79.54;98891.78;1676442;84;21119;-63
2023/02/21 19:19:17;;;;;;;2.83;1.20;;;;;;;3.33;79.55;98896.36;1676580;85;21218;-64
2023/02/21 19:21:47;;;;;;;3.50;1.45;;;;;;;3.32;79.26;98906.02;1676408;85;21542;-63
2023/02/21 19:24:17;;;;;;;2.75;1.20;;;;;;;3.30;79.31;98906.21;1676493;84;21163;-63
2023/02/21 19:26:47;;;;;;;3.25;1.30;;;;;;;3.26;79.21;98917.09;1676353;85;21127;-63
2023/02/21 19:29:18;;;;;;;1.95;1.02;;;;;;;3.24;79.20;98913.69;1677084;85;21554;-63